aviador You're here:

KGON Decoded Metar

GROTON/NEW LONDO in CT, USA
Report Time2018-04-26 13:17:00
UTC Time2018-04-26 13:26:10
Flight Rules ifr IFR
WindVRB at 05 kt
Visibility4828 m
Phenomena:Mist
Clouds:Broken 005 Hf
Overcast 033 Hf
Expected CloudBase > 400 ft AGL from Temp-Dew spread
Ceiling500 ft
Temp13°C (ISA -2)
Dew Point12°C (94% RH)
AAT11.8°C
QNH1003 hPa
Density Alt302 ft
Elevation10 ft
Report Wrong Elevation
Raw Report
KGON 261317Z VRB05KT 3SM BR BKN005 OVC033 13/12 A2962 RMK AO2
T01280122=

Extra information for KGON:More info

Metar Taf Metar & Taf Last 4 Metars F.Rules Stats Wind Profile Meteogram Temp Stats Airport Information Weather charts Add Link Nearby VenuesMetar ALERT Operation Metar Decoded Social comments

AIRNAV info for KGON